createdAt,value
2023-02-27T00:01:57.119Z,0.53
2023-02-27T00:04:26.623Z,0.50
2023-02-27T00:06:56.065Z,0.60
2023-02-27T00:09:25.512Z,0.70
2023-02-27T00:11:54.973Z,0.60
2023-02-27T00:14:24.404Z,0.60
2023-02-27T00:16:53.856Z,1.00
2023-02-27T00:19:23.272Z,0.60
2023-02-27T00:21:52.727Z,0.50
2023-02-27T00:24:22.428Z,0.53
2023-02-27T00:26:52.421Z,0.50
2023-02-27T00:29:21.835Z,0.37
2023-02-27T00:31:51.384Z,0.50
2023-02-27T00:34:20.893Z,0.67
2023-02-27T00:36:50.333Z,0.63
2023-02-27T00:39:19.767Z,0.70
2023-02-27T00:41:49.237Z,0.70
2023-02-27T00:44:18.797Z,0.40
2023-02-27T00:46:48.268Z,0.50
2023-02-27T00:49:17.675Z,0.30
2023-02-27T00:51:47.595Z,0.50
2023-02-27T00:54:17.024Z,0.40
2023-02-27T00:56:46.644Z,0.30
2023-02-27T00:59:16.078Z,0.40
2023-02-27T01:01:45.596Z,0.40
2023-02-27T01:04:15.193Z,0.60
2023-02-27T01:06:45.017Z,0.50
2023-02-27T01:09:14.447Z,0.60
2023-02-27T01:11:43.965Z,0.57
2023-02-27T01:14:13.394Z,0.67
2023-02-27T01:16:42.921Z,0.73
2023-02-27T01:19:12.393Z,0.50
2023-02-27T01:21:42.891Z,0.50
2023-02-27T01:24:13.126Z,0.30
2023-02-27T01:26:42.579Z,0.47
2023-02-27T01:29:12.187Z,0.43
2023-02-27T01:31:41.745Z,0.60
2023-02-27T01:34:11.217Z,0.40
2023-02-27T01:36:40.760Z,0.43
2023-02-27T01:39:10.338Z,0.50
2023-02-27T01:41:40.162Z,0.50
2023-02-27T01:44:13.704Z,0.50
2023-02-27T01:46:44.169Z,0.60
2023-02-27T01:49:21.187Z,0.63
2023-02-27T01:52:02.533Z,0.60
2023-02-27T01:54:36.423Z,0.60
2023-02-27T01:57:07.673Z,0.70
2023-02-27T01:59:40.446Z,0.60
2023-02-27T02:02:14.560Z,0.40
2023-02-27T02:04:46.325Z,0.30
2023-02-27T02:07:21.082Z,0.40
2023-02-27T02:10:00.478Z,0.60
2023-02-27T02:12:34.620Z,0.50
2023-02-27T02:15:04.688Z,0.30
2023-02-27T02:17:59.191Z,0.63
2023-02-27T02:20:33.253Z,0.40
2023-02-27T02:23:22.319Z,0.60
2023-02-27T02:26:14.678Z,0.53
2023-02-27T02:29:05.624Z,0.60
2023-02-27T02:32:00.432Z,0.57
2023-02-27T02:35:07.682Z,0.47
2023-02-27T02:38:08.269Z,0.67
2023-02-27T02:41:08.855Z,0.40
2023-02-27T02:44:10.008Z,0.60
2023-02-27T02:46:49.718Z,0.50
2023-02-27T02:49:29.265Z,0.50
2023-02-27T02:52:17.982Z,0.67
2023-02-27T02:55:00.803Z,0.50
2023-02-27T02:57:55.953Z,0.40
2023-02-27T03:00:33.012Z,0.30
2023-02-27T03:03:21.914Z,0.50
2023-02-27T03:05:58.417Z,0.40
2023-02-27T03:08:32.686Z,0.50
2023-02-27T03:11:05.821Z,0.37
2023-02-27T03:13:51.512Z,0.40
2023-02-27T03:16:41.615Z,0.50
2023-02-27T03:19:21.653Z,0.40
2023-02-27T03:21:58.499Z,0.40
2023-02-27T03:24:38.140Z,0.50
2023-02-27T03:27:10.303Z,0.50
2023-02-27T03:29:55.988Z,0.50
2023-02-27T03:32:35.633Z,0.40
2023-02-27T03:35:07.654Z,0.60
2023-02-27T03:38:11.386Z,0.40
2023-02-27T03:40:51.157Z,0.50
2023-02-27T03:43:40.095Z,0.50
2023-02-27T03:46:25.550Z,0.60
2023-02-27T03:48:55.043Z,0.53
2023-02-27T03:51:28.745Z,0.50
2023-02-27T03:54:23.808Z,0.50
2023-02-27T03:57:03.741Z,0.50
2023-02-27T03:59:34.990Z,0.50
2023-02-27T04:02:05.514Z,0.50
2023-02-27T04:04:39.346Z,0.50
2023-02-27T04:07:38.385Z,0.50
2023-02-27T04:10:43.892Z,0.50
2023-02-27T04:13:48.300Z,0.40
2023-02-27T04:16:46.473Z,0.70
2023-02-27T04:19:55.400Z,0.50
2023-02-27T04:22:49.470Z,0.50
2023-02-27T04:25:32.956Z,0.60
2023-02-27T04:28:23.690Z,0.60
2023-02-27T04:31:12.779Z,0.30
2023-02-27T04:33:46.828Z,0.40
2023-02-27T04:36:29.786Z,0.60
2023-02-27T04:39:09.112Z,0.50
2023-02-27T04:41:45.862Z,0.60
2023-02-27T04:44:19.302Z,0.77
2023-02-27T04:46:51.369Z,0.50
2023-02-27T04:49:31.967Z,0.50
2023-02-27T04:52:10.464Z,0.60
2023-02-27T04:54:56.184Z,0.40
2023-02-27T04:57:42.394Z,0.43
2023-02-27T05:00:15.798Z,0.50
2023-02-27T05:02:49.888Z,0.47
2023-02-27T05:05:23.912Z,0.50
2023-02-27T05:08:06.962Z,0.40
2023-02-27T05:10:49.808Z,0.40
2023-02-27T05:13:29.587Z,0.53
2023-02-27T05:16:12.184Z,0.70
2023-02-27T05:18:41.682Z,0.30
2023-02-27T05:21:30.528Z,0.40
2023-02-27T05:24:25.264Z,0.50
2023-02-27T05:27:07.986Z,0.50
2023-02-27T05:29:55.246Z,0.50
2023-02-27T05:32:51.786Z,0.40
2023-02-27T05:35:34.110Z,0.50
2023-02-27T05:43:48.088Z,0.50
2023-02-27T05:46:40.028Z,0.60
2023-02-27T05:49:17.022Z,0.50
2023-02-27T05:51:50.857Z,0.37
2023-02-27T05:54:58.068Z,0.40
2023-02-27T05:57:41.143Z,0.40
2023-02-27T06:00:24.097Z,0.50
2023-02-27T06:02:54.151Z,0.60
2023-02-27T06:05:25.797Z,0.60
2023-02-27T06:07:55.311Z,0.60
2023-02-27T06:10:26.032Z,0.40
2023-02-27T06:12:55.474Z,0.50
2023-02-27T06:15:24.962Z,0.60
2023-02-27T06:17:54.398Z,0.30
2023-02-27T06:20:23.826Z,0.60
2023-02-27T06:22:53.644Z,0.50
2023-02-27T06:25:23.128Z,0.63
2023-02-27T06:27:52.542Z,0.70
2023-02-27T06:30:22.357Z,0.60
2023-02-27T06:32:51.857Z,0.80
2023-02-27T06:35:21.450Z,0.60
2023-02-27T06:37:50.951Z,0.50
2023-02-27T06:40:20.458Z,0.57
2023-02-27T06:42:49.955Z,0.50
2023-02-27T06:45:20.005Z,0.50
2023-02-27T06:47:49.418Z,0.30
2023-02-27T06:50:18.976Z,0.40
2023-02-27T06:52:48.507Z,0.40
2023-02-27T06:55:19.569Z,0.50
2023-02-27T06:57:49.740Z,0.60
2023-02-27T07:00:19.664Z,0.40
2023-02-27T07:02:49.129Z,0.37
2023-02-27T07:05:18.520Z,0.50
2023-02-27T07:07:47.958Z,0.80
2023-02-27T07:10:17.554Z,0.73
2023-02-27T07:12:46.981Z,0.70
2023-02-27T07:15:16.561Z,0.50
2023-02-27T07:17:46.005Z,0.50
2023-02-27T07:20:15.704Z,0.50
2023-02-27T07:22:45.200Z,0.37
2023-02-27T07:25:14.619Z,0.50
2023-02-27T07:27:45.929Z,0.70
2023-02-27T07:30:15.673Z,0.70
2023-02-27T07:32:45.186Z,0.70
2023-02-27T07:35:14.655Z,0.70
2023-02-27T07:37:44.119Z,0.73
2023-02-27T07:40:14.386Z,0.50
2023-02-27T07:42:43.808Z,0.77
2023-02-27T07:45:13.431Z,0.80
2023-02-27T07:47:42.924Z,0.80
2023-02-27T07:50:14.071Z,0.93
2023-02-27T07:52:44.909Z,0.50
2023-02-27T07:55:15.926Z,0.70
2023-02-27T07:57:46.783Z,0.70
2023-02-27T08:00:17.116Z,0.60
2023-02-27T08:02:46.720Z,0.73
2023-02-27T08:05:16.234Z,1.00
2023-02-27T08:07:45.669Z,0.90
2023-02-27T08:10:16.564Z,1.10
2023-02-27T08:12:46.087Z,0.60
2023-02-27T08:15:17.192Z,0.90
2023-02-27T08:17:48.824Z,0.60
2023-02-27T08:20:21.178Z,0.70
2023-02-27T08:22:50.894Z,0.90
2023-02-27T08:25:21.522Z,0.90
2023-02-27T08:27:50.955Z,0.97
2023-02-27T08:30:20.432Z,0.90
2023-02-27T08:32:50.152Z,0.80
2023-02-27T08:35:19.870Z,0.80
2023-02-27T08:37:50.162Z,0.77
2023-02-27T08:40:19.743Z,0.60
2023-02-27T08:42:50.823Z,0.70
2023-02-27T08:45:20.380Z,0.70
2023-02-27T08:47:49.823Z,0.60
2023-02-27T08:50:19.309Z,0.93
2023-02-27T08:52:49.410Z,0.60
2023-02-27T08:55:18.846Z,0.73
2023-02-27T08:57:48.286Z,0.80
2023-02-27T09:00:18.314Z,0.62
2023-02-27T09:02:47.813Z,0.80
2023-02-27T09:05:17.557Z,0.83
2023-02-27T09:07:47.228Z,0.67
2023-02-27T09:10:17.811Z,1.30
2023-02-27T09:12:49.208Z,0.83
2023-02-27T09:15:18.730Z,0.73
2023-02-27T09:17:48.246Z,0.60
2023-02-27T09:20:18.061Z,0.90
2023-02-27T09:22:47.769Z,0.97
2023-02-27T09:25:17.196Z,1.00
2023-02-27T09:27:46.629Z,0.90
2023-02-27T09:30:16.191Z,1.23
2023-02-27T09:32:45.624Z,1.20
2023-02-27T09:35:16.689Z,1.20
2023-02-27T09:37:46.288Z,1.00
2023-02-27T09:40:33.049Z,0.70
2023-02-27T09:43:12.529Z,1.00
2023-02-27T09:45:43.084Z,1.47
2023-02-27T09:48:34.807Z,1.70
2023-02-27T09:51:05.326Z,1.13
2023-02-27T09:53:42.652Z,1.10
2023-02-27T09:56:28.977Z,1.00
2023-02-27T09:59:05.852Z,0.67
2023-02-27T10:01:45.774Z,0.70
2023-02-27T10:04:51.089Z,1.00
2023-02-27T10:07:27.782Z,0.80
2023-02-27T10:10:07.705Z,0.80
2023-02-27T10:13:23.991Z,1.00
2023-02-27T10:15:56.115Z,0.93
2023-02-27T10:18:36.817Z,0.97
2023-02-27T10:21:10.568Z,0.90
2023-02-27T10:23:47.636Z,0.90
2023-02-27T10:26:24.282Z,0.90
2023-02-27T10:28:53.794Z,0.70
2023-02-27T10:31:28.241Z,0.97
2023-02-27T10:34:01.531Z,1.00
2023-02-27T10:36:34.798Z,1.07
2023-02-27T10:39:11.226Z,1.03
2023-02-27T10:41:43.324Z,0.93
2023-02-27T10:44:16.604Z,0.97
2023-02-27T10:46:47.910Z,0.90
2023-02-27T10:49:21.945Z,0.90
2023-02-27T10:52:16.031Z,0.90
2023-02-27T10:54:47.218Z,1.20
2023-02-27T10:57:44.096Z,1.03
2023-02-27T11:00:37.784Z,1.00
2023-02-27T11:03:09.885Z,1.40
2023-02-27T11:05:40.464Z,1.40
2023-02-27T11:08:26.096Z,0.93
2023-02-27T11:11:11.752Z,1.00
2023-02-27T11:13:46.506Z,1.57
2023-02-27T11:16:24.405Z,1.40
2023-02-27T11:18:55.686Z,1.13
2023-02-27T11:21:31.046Z,1.90
2023-02-27T11:24:10.921Z,1.30
2023-02-27T11:26:56.317Z,1.20
2023-02-27T11:29:26.300Z,1.50
2023-02-27T11:32:00.640Z,1.60
2023-02-27T11:34:37.895Z,1.17
2023-02-27T11:37:14.802Z,1.20
2023-02-27T11:40:04.696Z,1.30
2023-02-27T11:42:37.875Z,1.13
2023-02-27T11:46:11.854Z,0.70
2023-02-27T11:48:05.966Z,1.07
2023-02-27T11:51:05.687Z,0.80
2023-02-27T11:53:54.526Z,1.30
2023-02-27T11:56:40.393Z,0.80
2023-02-27T11:59:17.358Z,0.80
2023-02-27T12:01:54.078Z,0.70
2023-02-27T12:04:43.104Z,0.80
2023-02-27T12:07:35.369Z,0.60
2023-02-27T12:10:21.217Z,0.60
2023-02-27T12:13:10.342Z,0.73
2023-02-27T12:15:56.688Z,0.90
2023-02-27T12:18:33.408Z,0.50
2023-02-27T12:21:07.506Z,0.60
2023-02-27T12:23:59.056Z,0.70
2023-02-27T12:26:38.787Z,0.43
2023-02-27T12:29:33.369Z,0.70
2023-02-27T12:32:27.867Z,0.73
2023-02-27T12:35:05.302Z,0.60
2023-02-27T12:37:35.090Z,0.47
2023-02-27T12:40:10.784Z,0.73
2023-02-27T12:43:11.192Z,0.57
2023-02-27T12:46:03.507Z,0.50
2023-02-27T12:48:55.166Z,0.90
2023-02-27T12:51:51.172Z,0.53
2023-02-27T12:54:49.467Z,1.00
2023-02-27T12:58:02.635Z,0.50
2023-02-27T13:00:39.071Z,0.60
2023-02-27T13:03:31.163Z,0.57
2023-02-27T13:06:32.188Z,0.60
2023-02-27T13:09:39.214Z,0.50
2023-02-27T13:12:42.015Z,0.80
2023-02-27T13:15:24.832Z,0.60
2023-02-27T13:18:09.492Z,0.60
2023-02-27T13:21:10.577Z,0.87
2023-02-27T13:23:54.282Z,0.50
2023-02-27T13:26:34.144Z,0.70
2023-02-27T13:29:05.893Z,0.50
2023-02-27T13:31:54.919Z,0.50
2023-02-27T13:34:40.958Z,0.50
2023-02-27T13:37:11.342Z,0.47
2023-02-27T13:39:52.608Z,0.30
2023-02-27T13:42:33.125Z,0.53
2023-02-27T13:45:06.246Z,0.40
2023-02-27T13:47:50.070Z,0.57
2023-02-27T13:50:24.166Z,0.50
2023-02-27T13:52:54.492Z,0.40
2023-02-27T13:55:36.972Z,0.60
2023-02-27T13:58:08.856Z,0.70
2023-02-27T14:00:38.562Z,0.60
2023-02-27T14:03:21.978Z,0.50
2023-02-27T14:05:55.253Z,0.47
2023-02-27T14:08:31.448Z,0.40
2023-02-27T14:11:14.482Z,0.47
2023-02-27T14:13:59.764Z,0.50
2023-02-27T14:16:48.632Z,0.40
2023-02-27T14:19:25.822Z,0.47
2023-02-27T14:22:02.899Z,0.40
2023-02-27T14:25:03.003Z,0.60
2023-02-27T14:27:32.768Z,0.60
2023-02-27T14:30:08.039Z,0.50
2023-02-27T14:32:39.605Z,0.57
2023-02-27T14:35:11.502Z,0.60
2023-02-27T14:37:42.200Z,0.30
2023-02-27T14:40:29.200Z,0.40
2023-02-27T14:43:28.524Z,0.53
2023-02-27T14:46:01.578Z,0.30
2023-02-27T14:48:31.081Z,0.20
2023-02-27T14:51:02.625Z,0.20
2023-02-27T14:53:32.930Z,0.40
2023-02-27T14:56:02.444Z,0.40
2023-02-27T14:58:31.894Z,0.30
2023-02-27T15:01:09.045Z,0.25
2023-02-27T15:03:44.100Z,0.30
2023-02-27T15:06:26.997Z,0.30
2023-02-27T15:08:58.284Z,0.40
2023-02-27T15:11:28.641Z,0.43
2023-02-27T15:14:02.733Z,0.30
2023-02-27T15:16:40.982Z,0.50
2023-02-27T15:19:23.521Z,0.20
2023-02-27T15:21:58.527Z,0.50
2023-02-27T15:24:49.756Z,0.30
2023-02-27T15:27:13.804Z,0.20
2023-02-27T15:32:29.932Z,0.20
2023-02-27T15:35:03.523Z,0.20
2023-02-27T15:37:35.555Z,0.20
2023-02-27T15:40:10.073Z,0.25
2023-02-27T15:42:39.633Z,0.30
2023-02-27T15:45:11.804Z,0.20
2023-02-27T15:47:43.926Z,0.40
2023-02-27T15:50:35.303Z,0.40
2023-02-27T15:53:24.054Z,0.30
2023-02-27T15:55:57.318Z,0.20
2023-02-27T15:58:36.604Z,0.30
2023-02-27T16:01:16.772Z,0.30
2023-02-27T16:03:53.460Z,0.33
2023-02-27T16:06:33.476Z,0.33
2023-02-27T16:09:09.899Z,0.20
2023-02-27T16:11:39.688Z,0.30
2023-02-27T16:14:39.109Z,0.30
2023-02-27T16:17:24.072Z,0.47
2023-02-27T16:19:54.735Z,0.37
2023-02-27T16:22:25.080Z,0.20
2023-02-27T16:24:56.128Z,0.30
2023-02-27T16:27:31.870Z,0.30
2023-02-27T16:30:02.786Z,0.30
2023-02-27T16:32:44.178Z,0.40
2023-02-27T16:35:25.869Z,0.43
2023-02-27T16:37:58.369Z,0.50
2023-02-27T16:40:30.198Z,0.43
2023-02-27T16:43:01.218Z,0.30
2023-02-27T16:45:31.967Z,0.30
2023-02-27T16:48:02.871Z,0.40
2023-02-27T16:50:43.713Z,0.40
2023-02-27T16:53:13.393Z,0.40
2023-02-27T16:55:43.876Z,0.30
2023-02-27T16:58:18.760Z,0.40
2023-02-27T17:00:48.679Z,0.33
2023-02-27T17:03:18.091Z,0.30
2023-02-27T17:05:48.668Z,0.40
2023-02-27T17:08:19.395Z,0.30
2023-02-27T17:10:48.846Z,0.30
2023-02-27T17:13:18.563Z,0.40
2023-02-27T17:15:47.998Z,0.30
2023-02-27T17:18:17.407Z,0.37
2023-02-27T17:20:46.833Z,0.20
2023-02-27T17:23:16.247Z,0.20
2023-02-27T17:25:45.916Z,0.30
2023-02-27T17:28:15.334Z,0.30
2023-02-27T17:30:44.816Z,0.40
2023-02-27T17:33:14.332Z,0.30
2023-02-27T17:35:43.926Z,0.30
2023-02-27T17:38:13.312Z,0.23
2023-02-27T17:40:43.234Z,0.30
2023-02-27T17:43:12.936Z,0.30
2023-02-27T17:45:42.585Z,0.30
2023-02-27T17:48:12.852Z,0.30
2023-02-27T17:50:44.075Z,0.37
2023-02-27T17:53:14.902Z,0.27
2023-02-27T17:55:44.345Z,0.30
2023-02-27T17:58:13.762Z,0.40
2023-02-27T18:00:43.197Z,0.30
2023-02-27T18:03:12.613Z,0.20
2023-02-27T18:05:50.636Z,0.20
2023-02-27T18:08:20.693Z,0.30
2023-02-27T18:10:52.251Z,0.33
2023-02-27T18:13:23.649Z,0.30
2023-02-27T18:15:53.783Z,0.40
2023-02-27T18:18:47.479Z,0.30
2023-02-27T18:21:21.120Z,0.40
2023-02-27T18:23:52.243Z,0.50
2023-02-27T18:26:30.393Z,0.40
2023-02-27T18:29:01.415Z,0.40
2023-02-27T18:31:41.361Z,0.47
2023-02-27T18:34:12.043Z,0.70
2023-02-27T18:36:42.002Z,0.67
2023-02-27T18:39:12.002Z,0.60
2023-02-27T18:41:41.975Z,0.60
2023-02-27T18:44:11.568Z,0.63
2023-02-27T18:46:41.028Z,0.33
2023-02-27T18:49:11.005Z,0.70
2023-02-27T18:51:40.437Z,0.60
2023-02-27T18:54:14.877Z,0.70
2023-02-27T18:56:44.318Z,1.00
2023-02-27T18:59:13.718Z,0.73
2023-02-27T19:01:43.147Z,0.70
2023-02-27T19:04:12.574Z,0.70
2023-02-27T19:06:43.413Z,0.90
2023-02-27T19:09:21.658Z,0.87
2023-02-27T19:11:50.589Z,0.70
2023-02-27T19:14:20.010Z,0.67
2023-02-27T19:16:50.813Z,0.70
2023-02-27T19:19:20.598Z,0.63
2023-02-27T19:21:50.005Z,0.70
2023-02-27T19:24:19.427Z,0.50
2023-02-27T19:26:48.954Z,0.40
2023-02-27T19:29:18.501Z,0.67
2023-02-27T19:31:48.284Z,0.57
2023-02-27T19:34:17.855Z,0.60
2023-02-27T19:36:47.384Z,0.90
2023-02-27T19:39:16.808Z,0.83
2023-02-27T19:41:46.238Z,1.10
2023-02-27T19:44:15.827Z,0.90
2023-02-27T19:46:46.948Z,1.00
2023-02-27T19:49:16.385Z,0.80
2023-02-27T19:51:45.833Z,0.90
2023-02-27T19:54:17.483Z,1.00
2023-02-27T19:56:46.919Z,1.10
2023-02-27T19:59:17.737Z,1.10
2023-02-27T20:01:47.146Z,1.23
2023-02-27T20:04:17.602Z,1.30
2023-02-27T20:06:50.730Z,1.10
2023-02-27T20:09:23.530Z,1.20
2023-02-27T20:12:00.572Z,1.17
2023-02-27T20:14:31.210Z,1.10
2023-02-27T20:17:00.626Z,0.80
2023-02-27T20:19:30.058Z,1.00
2023-02-27T20:21:59.546Z,0.60
2023-02-27T20:24:29.011Z,0.63
2023-02-27T20:26:59.332Z,0.50
2023-02-27T20:29:29.249Z,0.40
2023-02-27T20:31:58.948Z,0.60
2023-02-27T20:34:28.487Z,0.40
2023-02-27T20:36:58.408Z,0.40
2023-02-27T20:39:28.898Z,0.60
2023-02-27T20:41:58.634Z,0.60
2023-02-27T20:44:28.035Z,0.40
2023-02-27T20:46:57.472Z,0.40
2023-02-27T20:49:26.904Z,0.33
2023-02-27T20:51:57.695Z,0.57
2023-02-27T20:54:27.235Z,0.50
2023-02-27T20:56:57.822Z,0.40
2023-02-27T20:59:27.646Z,0.47
2023-02-27T21:01:57.155Z,0.37
2023-02-27T21:04:43.030Z,0.43
2023-02-27T21:07:18.876Z,0.40
2023-02-27T21:09:48.527Z,0.40
2023-02-27T21:12:18.764Z,0.40
2023-02-27T21:14:49.265Z,0.40
2023-02-27T21:17:18.686Z,0.50
2023-02-27T21:19:48.095Z,0.40
2023-02-27T21:22:17.537Z,0.50
2023-02-27T21:24:48.595Z,0.50
2023-02-27T21:27:19.865Z,0.37
2023-02-27T21:29:51.187Z,0.27
2023-02-27T21:32:20.773Z,0.30
2023-02-27T21:34:50.476Z,0.27
2023-02-27T21:37:20.183Z,0.30
2023-02-27T21:39:51.237Z,0.40
2023-02-27T21:42:21.066Z,0.40
2023-02-27T21:44:50.563Z,0.30
2023-02-27T21:47:21.117Z,0.40
2023-02-27T21:49:52.187Z,0.30
2023-02-27T21:52:21.629Z,0.30
2023-02-27T21:54:51.035Z,0.50
2023-02-27T21:57:21.743Z,0.30
2023-02-27T21:59:51.231Z,0.60
2023-02-27T22:02:21.113Z,0.37
2023-02-27T22:04:50.569Z,0.40
2023-02-27T22:07:20.463Z,0.50
2023-02-27T22:09:49.959Z,0.50
2023-02-27T22:12:19.688Z,0.50
2023-02-27T22:14:49.351Z,0.50
2023-02-27T22:17:18.787Z,0.43
2023-02-27T22:19:48.213Z,0.50
2023-02-27T22:22:17.637Z,0.40
2023-02-27T22:24:47.323Z,0.43
2023-02-27T22:27:17.115Z,0.50
2023-02-27T22:29:46.536Z,0.40
2023-02-27T22:32:16.028Z,0.40
2023-02-27T22:34:45.471Z,0.30
2023-02-27T22:37:16.096Z,0.60
2023-02-27T22:39:45.508Z,0.33
2023-02-27T22:42:14.949Z,0.50
2023-02-27T22:44:44.611Z,0.40
2023-02-27T22:47:14.046Z,0.70
2023-02-27T22:49:43.468Z,0.47
2023-02-27T22:52:12.883Z,0.50
2023-02-27T22:54:42.305Z,0.40
2023-02-27T22:57:11.733Z,0.40
2023-02-27T22:59:41.185Z,0.60
2023-02-27T23:02:12.242Z,0.30
2023-02-27T23:04:41.684Z,0.40
2023-02-27T23:07:11.170Z,0.50
2023-02-27T23:09:40.603Z,0.40
2023-02-27T23:12:10.097Z,0.40
2023-02-27T23:14:39.525Z,0.40
2023-02-27T23:17:08.948Z,0.50
2023-02-27T23:19:38.574Z,0.60
2023-02-27T23:22:08.886Z,0.50
2023-02-27T23:24:40.621Z,0.47
2023-02-27T23:27:25.372Z,0.40
2023-02-27T23:29:42.633Z,0.43
2023-02-27T23:32:12.213Z,0.50
2023-02-27T23:34:49.385Z,0.60
2023-02-27T23:37:13.841Z,0.53
2023-02-27T23:39:43.264Z,0.60
2023-02-27T23:42:13.013Z,0.53
2023-02-27T23:45:00.114Z,0.40
2023-02-27T23:47:44.813Z,0.47
2023-02-27T23:50:14.238Z,0.40
2023-02-27T23:52:43.671Z,0.70
2023-02-27T23:55:13.368Z,0.70
2023-02-27T23:57:42.867Z,0.40
